Time,TemperatureF,DewpointF,PressureIn,WindDirection,WindDirectionDegrees,WindSpeedMPH,WindSpeedGustMPH,Humidity,HourlyPrecipIn,Conditions,Clouds,dailyrainin,SoftwareType,DateUTC
2013-08-12 00:15:00,74.1,66.0,30.06,SSE,158,1.0,3.0,76,0.00,,,0.00,meteohub,2013-08-11 22:15:00,
2013-08-12 00:29:00,73.9,65.8,30.06,SE,135,0.0,2.0,76,0.00,,,0.00,meteohub,2013-08-11 22:29:00,
2013-08-12 00:45:00,73.8,65.7,30.06,SE,135,0.0,0.0,76,0.00,,,0.00,meteohub,2013-08-11 22:45:00,
2013-08-12 01:01:00,73.4,65.7,30.06,SE,135,0.0,1.0,77,0.00,,,0.00,meteohub,2013-08-11 23:01:00,
2013-08-12 01:17:00,72.9,65.7,30.06,SE,135,0.0,0.0,78,0.00,,,0.00,meteohub,2013-08-11 23:17:00,
2013-08-12 01:32:00,72.3,65.5,30.06,SE,135,0.0,0.0,79,0.00,,,0.00,meteohub,2013-08-11 23:32:00,
2013-08-12 01:50:00,72.3,65.8,30.06,SE,135,0.0,0.0,80,0.00,,,0.00,meteohub,2013-08-11 23:50:00,
2013-08-12 02:03:00,71.8,65.1,30.06,SE,135,0.0,0.0,79,0.00,,,0.00,meteohub,2013-08-12 00:03:00,
2013-08-12 02:20:00,71.4,65.3,30.06,SE,135,0.0,0.0,81,0.00,,,0.00,meteohub,2013-08-12 00:20:00,
2013-08-12 02:33:00,71.1,64.9,30.06,SE,135,0.0,0.0,81,0.00,,,0.00,meteohub,2013-08-12 00:33:00,
2013-08-12 02:49:00,70.2,64.4,30.05,SE,135,0.0,2.0,82,0.00,,,0.00,meteohub,2013-08-12 00:49:00,
2013-08-12 03:05:00,70.0,64.2,30.05,SE,135,0.0,0.0,82,0.00,,,0.00,meteohub,2013-08-12 01:05:00,
2013-08-12 03:20:00,70.2,64.0,30.04,SE,135,0.0,1.0,81,0.00,,,0.00,meteohub,2013-08-12 01:20:00,
2013-08-12 03:36:00,70.0,63.9,30.04,SE,135,0.0,0.0,81,0.00,,,0.00,meteohub,2013-08-12 01:36:00,
2013-08-12 03:51:00,69.8,63.9,30.04,SE,135,0.0,1.0,81,0.00,,,0.00,meteohub,2013-08-12 01:51:00,
2013-08-12 04:07:00,69.8,63.9,30.04,SE,135,1.0,2.0,81,0.00,,,0.00,meteohub,2013-08-12 02:07:00,
2013-08-12 04:22:00,69.3,63.7,30.04,East,90,1.0,2.0,82,0.00,,,0.00,meteohub,2013-08-12 02:22:00,
2013-08-12 04:37:00,68.5,63.5,30.04,NE,45,1.0,2.0,84,0.00,,,0.00,meteohub,2013-08-12 02:37:00,
2013-08-12 04:52:00,68.2,63.1,30.04,NE,45,1.0,3.0,84,0.00,,,0.00,meteohub,2013-08-12 02:52:00,
2013-08-12 05:09:00,68.4,63.5,30.04,NE,45,1.0,3.0,84,0.00,,,0.00,meteohub,2013-08-12 03:09:00,
2013-08-12 05:25:00,68.4,63.3,30.04,NE,45,1.0,2.0,84,0.00,,,0.00,meteohub,2013-08-12 03:25:00,
2013-08-12 05:40:00,69.1,64.0,30.04,NE,45,0.0,3.0,84,0.00,,,0.00,meteohub,2013-08-12 03:40:00,
2013-08-12 05:55:00,69.3,64.2,30.04,NE,45,0.0,2.0,84,0.00,,,0.00,meteohub,2013-08-12 03:55:00,
2013-08-12 06:10:00,69.1,63.7,30.04,NE,45,0.0,1.0,83,0.00,,,0.00,meteohub,2013-08-12 04:10:00,
2013-08-12 06:25:00,68.7,63.7,30.03,NE,45,1.0,2.0,84,0.00,,,0.00,meteohub,2013-08-12 04:25:00,
2013-08-12 06:40:00,68.4,63.3,30.04,NE,45,0.0,1.0,84,0.00,,,0.00,meteohub,2013-08-12 04:40:00,
2013-08-12 06:58:00,68.0,63.3,30.04,NE,45,1.0,2.0,85,0.00,,,0.00,meteohub,2013-08-12 04:58:00,
2013-08-12 07:14:00,67.5,63.1,30.04,NE,45,1.0,2.0,86,0.00,,,0.00,meteohub,2013-08-12 05:14:00,
2013-08-12 07:29:00,68.9,63.7,30.04,NE,45,1.0,3.0,83,0.00,,,0.00,meteohub,2013-08-12 05:29:00,
2013-08-12 07:45:00,68.9,63.1,30.04,NE,45,1.0,2.0,82,0.00,,,0.00,meteohub,2013-08-12 05:45:00,
2013-08-12 08:00:00,70.9,64.0,30.04,NE,45,0.0,2.0,79,0.00,,,0.00,meteohub,2013-08-12 06:00:00,
2013-08-12 08:16:00,72.3,64.4,30.04,NE,45,1.0,3.0,76,0.00,,,0.00,meteohub,2013-08-12 06:16:00,
2013-08-12 08:31:00,74.5,64.6,30.05,NE,45,1.0,3.0,71,0.00,,,0.00,meteohub,2013-08-12 06:31:00,
2013-08-12 08:47:00,74.8,65.7,30.05,NE,45,2.0,3.0,73,0.00,,,0.00,meteohub,2013-08-12 06:47:00,
2013-08-12 09:02:00,76.5,66.4,30.05,NE,45,1.0,2.0,71,0.00,,,0.00,meteohub,2013-08-12 07:02:00,
2013-08-12 09:18:00,77.2,66.2,30.06,NE,45,1.0,2.0,69,0.00,,,0.00,meteohub,2013-08-12 07:18:00,
2013-08-12 09:33:00,78.4,64.2,30.06,NE,45,0.0,3.0,61,0.00,,,0.00,meteohub,2013-08-12 07:33:00,
2013-08-12 09:50:00,80.1,65.8,30.06,West,270,2.0,4.0,62,0.00,,,0.00,meteohub,2013-08-12 07:50:00,
2013-08-12 10:05:00,79.7,65.5,30.06,WSW,248,3.0,5.0,62,0.00,,,0.00,meteohub,2013-08-12 08:05:00,
2013-08-12 10:20:00,80.2,65.3,30.06,SW,225,2.0,4.0,60,0.00,,,0.00,meteohub,2013-08-12 08:20:00,
2013-08-12 10:35:00,81.0,65.1,30.06,SW,225,2.0,3.0,58,0.00,,,0.00,meteohub,2013-08-12 08:35:00,
2013-08-12 10:51:00,82.2,64.8,30.06,West,270,1.0,4.0,55,0.00,,,0.00,meteohub,2013-08-12 08:51:00,
2013-08-12 11:06:00,82.9,64.2,30.06,SW,225,1.0,2.0,53,0.00,,,0.00,meteohub,2013-08-12 09:06:00,
2013-08-12 11:21:00,84.6,63.5,30.06,SE,135,1.0,5.0,49,0.00,,,0.00,meteohub,2013-08-12 09:21:00,
2013-08-12 11:37:00,84.9,62.6,30.06,SW,225,3.0,5.0,47,0.00,,,0.00,meteohub,2013-08-12 09:37:00,
2013-08-12 11:52:00,85.6,63.1,30.06,WSW,248,3.0,10.0,47,0.00,,,0.00,meteohub,2013-08-12 09:52:00,
2013-08-12 12:07:00,85.5,64.0,30.06,WSW,248,6.0,9.0,49,0.00,,,0.00,meteohub,2013-08-12 10:07:00,
2013-08-12 12:22:00,85.8,64.0,30.05,SSW,203,5.0,11.0,48,0.00,,,0.00,meteohub,2013-08-12 10:22:00,
2013-08-12 12:37:00,86.0,64.6,30.05,WSW,248,4.0,8.0,49,0.00,,,0.00,meteohub,2013-08-12 10:37:00,
2013-08-12 12:53:00,85.6,65.5,30.05,South,180,5.0,10.0,51,0.00,,,0.00,meteohub,2013-08-12 10:53:00,
2013-08-12 13:09:00,85.6,65.5,30.05,SW,225,6.0,9.0,51,0.00,,,0.00,meteohub,2013-08-12 11:09:00,
2013-08-12 13:24:00,84.9,65.8,30.05,SW,225,8.0,13.0,53,0.00,,,0.00,meteohub,2013-08-12 11:24:00,
2013-08-12 13:40:00,84.7,66.7,30.05,SSW,203,7.0,13.0,55,0.00,,,0.00,meteohub,2013-08-12 11:40:00,
2013-08-12 13:55:00,84.4,67.3,30.05,SSW,203,7.0,13.0,56,0.00,,,0.00,meteohub,2013-08-12 11:55:00,
2013-08-12 14:10:00,84.2,67.8,30.04,SSW,203,7.0,11.0,58,0.00,,,0.00,meteohub,2013-08-12 12:10:00,
2013-08-12 14:25:00,83.8,68.0,30.04,SSW,203,7.0,14.0,59,0.00,,,0.00,meteohub,2013-08-12 12:25:00,
2013-08-12 14:41:00,84.6,68.5,30.04,SSW,203,7.0,11.0,58,0.00,,,0.00,meteohub,2013-08-12 12:41:00,
2013-08-12 14:56:00,84.6,68.5,30.04,SSW,203,6.0,12.0,58,0.00,,,0.00,meteohub,2013-08-12 12:56:00,
2013-08-12 15:11:00,84.7,67.8,30.03,SW,225,6.0,11.0,57,0.00,,,0.00,meteohub,2013-08-12 13:11:00,
2013-08-12 15:27:00,84.6,67.8,30.03,SW,225,6.0,13.0,57,0.00,,,0.00,meteohub,2013-08-12 13:27:00,
2013-08-12 15:42:00,85.5,68.0,30.02,SW,225,6.0,12.0,56,0.00,,,0.00,meteohub,2013-08-12 13:42:00,
2013-08-12 15:57:00,84.6,68.2,30.02,SW,225,9.0,14.0,58,0.00,,,0.00,meteohub,2013-08-12 13:57:00,
2013-08-12 16:13:00,84.0,68.5,30.01,SW,225,6.0,11.0,59,0.00,,,0.00,meteohub,2013-08-12 14:13:00,
2013-08-12 16:29:00,84.6,68.7,30.01,SW,225,6.0,10.0,59,0.00,,,0.00,meteohub,2013-08-12 14:29:00,
2013-08-12 16:45:00,84.4,68.9,30.00,SSW,203,7.0,11.0,59,0.00,,,0.00,meteohub,2013-08-12 14:45:00,
2013-08-12 17:00:00,84.0,69.6,30.00,SW,225,6.0,12.0,62,0.00,,,0.00,meteohub,2013-08-12 15:00:00,
2013-08-12 17:16:00,84.7,69.6,29.99,SSW,203,5.0,10.0,60,0.00,,,0.00,meteohub,2013-08-12 15:16:00,
2013-08-12 17:31:00,84.0,69.6,29.99,SSW,203,6.0,13.0,62,0.00,,,0.00,meteohub,2013-08-12 15:31:00,
2013-08-12 17:49:00,83.7,69.8,29.99,SSW,203,6.0,11.0,63,0.00,,,0.00,meteohub,2013-08-12 15:49:00,
2013-08-12 18:04:00,82.9,70.0,29.99,SSW,203,5.0,12.0,65,0.00,,,0.00,meteohub,2013-08-12 16:04:00,
2013-08-12 18:19:00,83.7,69.8,29.98,South,180,7.0,10.0,62,0.00,,,0.00,meteohub,2013-08-12 16:19:00,
2013-08-12 18:35:00,83.5,69.8,29.98,SSW,203,3.0,12.0,63,0.00,,,0.00,meteohub,2013-08-12 16:35:00,
2013-08-12 18:50:00,82.2,70.2,29.98,WSW,248,6.0,10.0,67,0.00,,,0.00,meteohub,2013-08-12 16:50:00,
2013-08-12 19:06:00,82.6,70.3,29.98,West,270,4.0,7.0,66,0.00,,,0.00,meteohub,2013-08-12 17:06:00,
2013-08-12 19:22:00,81.9,70.5,29.98,SW,225,4.0,10.0,68,0.00,,,0.00,meteohub,2013-08-12 17:22:00,
2013-08-12 19:37:00,81.9,70.3,29.97,SW,225,3.0,6.0,68,0.00,,,0.00,meteohub,2013-08-12 17:37:00,
2013-08-12 19:53:00,81.3,69.8,29.98,SW,225,6.0,8.0,68,0.00,,,0.00,meteohub,2013-08-12 17:53:00,
2013-08-12 20:08:00,80.6,69.6,29.98,WSW,248,5.0,8.0,69,0.00,,,0.00,meteohub,2013-08-12 18:08:00,
2013-08-12 20:24:00,80.1,69.4,29.98,WSW,248,5.0,9.0,70,0.00,,,0.00,meteohub,2013-08-12 18:24:00,
2013-08-12 20:39:00,79.3,69.1,29.99,SW,225,4.0,5.0,71,0.00,,,0.00,meteohub,2013-08-12 18:39:00,
2013-08-12 20:54:00,78.6,69.3,29.99,West,270,4.0,7.0,73,0.00,,,0.00,meteohub,2013-08-12 18:54:00,
2013-08-12 21:09:00,78.6,69.4,29.99,West,270,2.0,4.0,73,0.00,,,0.00,meteohub,2013-08-12 19:09:00,
2013-08-12 21:24:00,78.3,69.3,29.99,West,270,3.0,5.0,74,0.00,,,0.00,meteohub,2013-08-12 19:24:00,
2013-08-12 21:40:00,77.7,69.1,29.99,West,270,4.0,7.0,75,0.00,,,0.00,meteohub,2013-08-12 19:40:00,
2013-08-12 21:56:00,77.7,69.1,30.00,West,270,2.0,5.0,75,0.00,,,0.00,meteohub,2013-08-12 19:56:00,
2013-08-12 22:11:00,77.5,69.4,30.01,WSW,248,2.0,7.0,76,0.00,,,0.00,meteohub,2013-08-12 20:11:00,
2013-08-12 22:27:00,77.5,69.4,30.01,West,270,7.0,7.0,76,0.00,,,0.00,meteohub,2013-08-12 20:27:00,
2013-08-12 22:42:00,77.5,69.4,30.01,WSW,248,4.0,6.0,76,0.00,,,0.00,meteohub,2013-08-12 20:42:00,
2013-08-12 22:58:00,77.5,69.4,30.01,WSW,248,3.0,4.0,76,0.00,,,0.00,meteohub,2013-08-12 20:58:00,
2013-08-12 23:13:00,77.2,69.4,30.01,SSW,203,2.0,6.0,77,0.00,,,0.00,meteohub,2013-08-12 21:13:00,
2013-08-12 23:29:00,77.2,69.6,30.01,SW,225,2.0,4.0,77,0.00,,,0.00,meteohub,2013-08-12 21:29:00,
2013-08-12 23:45:00,76.6,70.0,30.01,SSW,203,0.0,4.0,80,0.00,,,0.00,meteohub,2013-08-12 21:45:00,